createdAt,value
2022-08-31T00:00:49.613Z,65.80
2022-08-31T00:01:49.608Z,65.94
2022-08-31T00:02:49.586Z,65.80
2022-08-31T00:03:49.560Z,66.03
2022-08-31T00:04:49.692Z,66.14
2022-08-31T00:05:49.542Z,66.24
2022-08-31T00:06:49.536Z,66.24
2022-08-31T00:07:49.511Z,66.44
2022-08-31T00:08:49.502Z,66.54
2022-08-31T00:09:49.503Z,66.74
2022-08-31T00:10:49.516Z,66.74
2022-08-31T00:11:49.476Z,66.74
2022-08-31T00:12:49.454Z,66.84
2022-08-31T00:13:49.435Z,66.94
2022-08-31T00:14:49.447Z,67.35
2022-08-31T00:15:49.434Z,67.24
2022-08-31T00:16:49.451Z,67.14
2022-08-31T00:17:49.394Z,67.24
2022-08-31T00:18:49.386Z,67.35
2022-08-31T00:19:49.373Z,67.35
2022-08-31T00:20:49.377Z,67.44
2022-08-31T00:21:49.656Z,67.65
2022-08-31T00:22:49.349Z,68.08
2022-08-31T00:23:49.330Z,68.18
2022-08-31T00:24:49.321Z,68.08
2022-08-31T00:25:49.312Z,68.18
2022-08-31T00:26:49.287Z,68.28
2022-08-31T00:27:49.314Z,68.38
2022-08-31T00:28:49.293Z,68.48
2022-08-31T00:29:49.263Z,68.59
2022-08-31T00:30:49.239Z,68.68
2022-08-31T00:31:49.282Z,68.88
2022-08-31T00:32:49.211Z,68.88
2022-08-31T00:33:49.201Z,68.98
2022-08-31T00:34:49.203Z,69.18
2022-08-31T00:35:49.196Z,69.18
2022-08-31T00:36:49.195Z,69.29
2022-08-31T00:37:49.166Z,69.49
2022-08-31T00:38:49.142Z,69.59
2022-08-31T00:39:49.132Z,69.79
2022-08-31T00:40:49.271Z,69.89
2022-08-31T00:41:49.111Z,69.99
2022-08-31T00:42:49.132Z,70.09
2022-08-31T00:43:49.097Z,69.99
2022-08-31T00:44:49.078Z,70.09
2022-08-31T00:45:49.126Z,70.19
2022-08-31T00:46:49.318Z,70.29
2022-08-31T00:47:49.036Z,70.50
2022-08-31T00:48:49.023Z,70.59
2022-08-31T00:49:49.037Z,70.50
2022-08-31T00:50:49.019Z,70.59
2022-08-31T00:51:49.001Z,70.79
2022-08-31T00:52:49.297Z,70.79
2022-08-31T00:53:50.728Z,70.89
2022-08-31T00:54:48.947Z,71.00
2022-08-31T00:55:48.946Z,71.09
2022-08-31T00:56:48.948Z,71.09
2022-08-31T00:57:48.931Z,71.09
2022-08-31T00:58:54.430Z,71.09
2022-08-31T00:59:49.903Z,71.09
2022-08-31T01:00:48.921Z,71.43
2022-08-31T01:01:49.230Z,71.33
2022-08-31T01:02:48.875Z,71.43
2022-08-31T01:03:48.865Z,71.63
2022-08-31T01:04:48.850Z,71.53
2022-08-31T01:05:48.846Z,71.53
2022-08-31T01:06:48.805Z,71.73
2022-08-31T01:07:49.122Z,71.83
2022-08-31T01:08:48.796Z,71.73
2022-08-31T01:09:55.618Z,71.83
2022-08-31T01:10:49.779Z,71.94
2022-08-31T01:11:48.752Z,71.83
2022-08-31T01:12:48.733Z,71.94
2022-08-31T01:13:48.981Z,71.94
2022-08-31T01:14:49.023Z,72.03
2022-08-31T01:15:53.937Z,72.03
2022-08-31T01:16:49.933Z,72.34
2022-08-31T01:17:48.708Z,72.44
2022-08-31T01:18:48.678Z,72.44
2022-08-31T01:19:48.677Z,72.64
2022-08-31T01:20:49.414Z,72.44
2022-08-31T01:21:48.627Z,72.34
2022-08-31T01:22:48.616Z,72.54
2022-08-31T01:23:48.630Z,72.44
2022-08-31T01:24:48.588Z,72.34
2022-08-31T01:25:48.900Z,72.34
2022-08-31T01:26:49.738Z,72.34
2022-08-31T01:27:49.579Z,72.24
2022-08-31T01:28:48.839Z,72.24
2022-08-31T01:29:55.568Z,72.24
2022-08-31T01:30:48.525Z,72.24
2022-08-31T01:31:48.559Z,72.24
2022-08-31T01:32:48.505Z,72.24
2022-08-31T01:33:48.486Z,72.34
2022-08-31T01:34:48.485Z,72.34
2022-08-31T01:35:48.465Z,72.34
2022-08-31T01:36:48.461Z,72.44
2022-08-31T01:37:48.450Z,72.44
2022-08-31T01:38:53.039Z,72.54
2022-08-31T01:39:48.431Z,72.54
2022-08-31T01:40:48.669Z,72.54
2022-08-31T01:41:48.398Z,72.64
2022-08-31T01:42:48.392Z,72.64
2022-08-31T01:43:48.383Z,72.74
2022-08-31T01:44:48.349Z,72.64
2022-08-31T01:45:48.484Z,72.74
2022-08-31T01:46:48.382Z,72.84
2022-08-31T01:47:48.333Z,72.84
2022-08-31T01:48:48.309Z,72.94
2022-08-31T01:49:48.303Z,73.04
2022-08-31T01:50:48.481Z,73.14
2022-08-31T01:51:48.270Z,73.04
2022-08-31T01:52:48.275Z,73.04
2022-08-31T01:53:48.508Z,73.04
2022-08-31T01:54:48.232Z,73.14
2022-08-31T01:55:48.353Z,73.04
2022-08-31T01:56:48.224Z,73.24
2022-08-31T01:57:48.216Z,73.24
2022-08-31T01:58:48.197Z,73.35
2022-08-31T01:59:48.198Z,73.24
2022-08-31T02:00:48.374Z,73.55
2022-08-31T02:01:48.199Z,73.48
2022-08-31T02:02:48.220Z,73.48
2022-08-31T02:03:48.146Z,73.48
2022-08-31T02:04:48.115Z,73.48
2022-08-31T02:05:48.119Z,73.48
2022-08-31T02:06:48.416Z,73.58
2022-08-31T02:07:48.099Z,73.48
2022-08-31T02:08:48.089Z,73.48
2022-08-31T02:09:48.057Z,73.68
2022-08-31T02:10:48.047Z,73.58
2022-08-31T02:11:48.338Z,73.78
2022-08-31T02:12:48.026Z,73.68
2022-08-31T02:13:48.007Z,73.68
2022-08-31T02:14:48.012Z,73.88
2022-08-31T02:15:48.050Z,74.08
2022-08-31T02:16:47.979Z,74.29
2022-08-31T02:17:48.104Z,74.52
2022-08-31T02:18:47.964Z,74.42
2022-08-31T02:19:47.954Z,74.42
2022-08-31T02:20:47.943Z,74.52
2022-08-31T02:21:47.918Z,74.52
2022-08-31T02:22:48.070Z,74.62
2022-08-31T02:23:47.907Z,74.52
2022-08-31T02:24:47.902Z,74.52
2022-08-31T02:25:47.886Z,74.73
2022-08-31T02:26:53.082Z,74.73
2022-08-31T02:27:48.846Z,74.82
2022-08-31T02:28:47.835Z,74.93
2022-08-31T02:29:47.964Z,74.93
2022-08-31T02:30:47.835Z,74.73
2022-08-31T02:31:47.862Z,74.73
2022-08-31T02:32:47.808Z,74.73
2022-08-31T02:33:47.795Z,74.73
2022-08-31T02:34:47.764Z,74.73
2022-08-31T02:35:50.285Z,74.73
2022-08-31T02:36:48.769Z,74.82
2022-08-31T02:37:47.748Z,74.93
2022-08-31T02:38:47.725Z,74.82
2022-08-31T02:39:47.721Z,74.93
2022-08-31T02:40:47.767Z,74.93
2022-08-31T02:41:47.929Z,75.23
2022-08-31T02:42:52.734Z,75.23
2022-08-31T02:43:48.672Z,75.23
2022-08-31T02:44:47.668Z,75.33
2022-08-31T02:45:51.052Z,75.23
2022-08-31T02:46:48.998Z,75.43
2022-08-31T02:47:47.623Z,75.23
2022-08-31T02:48:47.610Z,75.33
2022-08-31T02:49:47.599Z,75.23
2022-08-31T02:50:47.850Z,75.23
2022-08-31T02:51:47.585Z,75.13
2022-08-31T02:52:47.576Z,75.43
2022-08-31T02:53:47.564Z,75.53
2022-08-31T02:54:47.538Z,75.43
2022-08-31T02:55:47.536Z,75.33
2022-08-31T02:56:47.886Z,75.43
2022-08-31T02:57:47.503Z,75.43
2022-08-31T02:58:47.505Z,75.36
2022-08-31T02:59:47.475Z,75.43
2022-08-31T03:00:47.496Z,75.23
2022-08-31T03:01:47.487Z,75.33
2022-08-31T03:02:47.924Z,75.33
2022-08-31T03:03:48.768Z,75.53
2022-08-31T03:04:47.425Z,75.23
2022-08-31T03:05:47.418Z,75.53
2022-08-31T03:06:47.406Z,75.43
2022-08-31T03:07:47.399Z,75.33
2022-08-31T03:08:47.683Z,75.33
2022-08-31T03:09:47.367Z,75.33
2022-08-31T03:10:47.348Z,75.26
2022-08-31T03:11:47.349Z,75.56
2022-08-31T03:12:47.998Z,75.46
2022-08-31T03:13:47.621Z,75.46
2022-08-31T03:14:47.739Z,75.36
2022-08-31T03:15:47.331Z,75.36
2022-08-31T03:16:47.291Z,75.36
2022-08-31T03:17:47.267Z,75.46
2022-08-31T03:18:47.258Z,75.56
2022-08-31T03:19:47.261Z,75.67
2022-08-31T03:20:47.481Z,75.36
2022-08-31T03:21:47.292Z,75.26
2022-08-31T03:22:47.210Z,75.26
2022-08-31T03:23:47.199Z,75.26
2022-08-31T03:24:47.202Z,75.36
2022-08-31T03:25:47.185Z,75.26
2022-08-31T03:26:47.185Z,75.36
2022-08-31T03:27:47.168Z,75.26
2022-08-31T03:28:47.144Z,75.26
2022-08-31T03:29:47.143Z,75.36
2022-08-31T03:30:47.155Z,75.36
2022-08-31T03:31:47.427Z,75.36
2022-08-31T03:32:47.104Z,75.36
2022-08-31T03:33:47.083Z,75.46
2022-08-31T03:34:47.077Z,75.46
2022-08-31T03:35:47.068Z,75.36
2022-08-31T03:36:47.068Z,75.46
2022-08-31T03:37:47.357Z,75.46
2022-08-31T03:38:47.038Z,75.46
2022-08-31T03:39:47.315Z,75.56
2022-08-31T03:40:47.101Z,75.56
2022-08-31T03:41:47.003Z,75.56
2022-08-31T03:42:46.985Z,75.56
2022-08-31T03:43:47.301Z,75.56
2022-08-31T03:44:46.956Z,75.46
2022-08-31T03:45:46.951Z,75.56
2022-08-31T03:46:46.961Z,75.56
2022-08-31T03:47:46.917Z,75.67
2022-08-31T03:48:46.929Z,75.67
2022-08-31T03:49:47.219Z,75.76
2022-08-31T03:50:46.902Z,75.87
2022-08-31T03:51:46.869Z,75.87
2022-08-31T03:52:46.872Z,75.87
2022-08-31T03:53:46.862Z,75.90
2022-08-31T03:54:47.060Z,76.10
2022-08-31T03:55:46.840Z,76.31
2022-08-31T03:56:46.825Z,76.10
2022-08-31T03:57:46.803Z,76.00
2022-08-31T03:58:46.810Z,76.00
2022-08-31T03:59:47.065Z,76.31
2022-08-31T04:00:46.783Z,76.20
2022-08-31T04:01:46.848Z,76.20
2022-08-31T04:02:46.814Z,76.10
2022-08-31T04:03:46.736Z,76.20
2022-08-31T04:04:46.723Z,76.20
2022-08-31T04:05:46.954Z,76.20
2022-08-31T04:06:46.730Z,76.20
2022-08-31T04:07:46.689Z,76.20
2022-08-31T04:08:46.689Z,76.51
2022-08-31T04:09:46.656Z,76.61
2022-08-31T04:10:46.668Z,76.61
2022-08-31T04:11:46.951Z,76.61
2022-08-31T04:12:46.648Z,76.71
2022-08-31T04:13:46.614Z,76.71
2022-08-31T04:14:46.620Z,76.71
2022-08-31T04:15:46.930Z,76.71
2022-08-31T04:16:46.599Z,76.91
2022-08-31T04:17:46.604Z,76.81
2022-08-31T04:18:46.558Z,76.81
2022-08-31T04:19:46.567Z,76.81
2022-08-31T04:20:46.539Z,76.95
2022-08-31T04:21:46.540Z,76.95
2022-08-31T04:22:46.525Z,76.91
2022-08-31T04:23:46.489Z,76.84
2022-08-31T04:24:46.489Z,76.84
2022-08-31T04:25:46.494Z,76.95
2022-08-31T04:26:46.668Z,77.04
2022-08-31T04:27:46.464Z,76.95
2022-08-31T04:28:46.440Z,77.04
2022-08-31T04:29:46.745Z,77.04
2022-08-31T04:30:46.461Z,77.15
2022-08-31T04:31:46.401Z,77.15
2022-08-31T04:32:46.592Z,77.15
2022-08-31T04:33:46.385Z,77.15
2022-08-31T04:34:46.384Z,77.15
2022-08-31T04:35:46.354Z,77.25
2022-08-31T04:36:46.356Z,77.55
2022-08-31T04:37:46.948Z,77.75
2022-08-31T04:38:46.336Z,77.66
2022-08-31T04:39:50.658Z,77.45
2022-08-31T04:40:47.384Z,77.35
2022-08-31T04:41:46.284Z,77.55
2022-08-31T04:42:46.576Z,77.55
2022-08-31T04:43:46.270Z,77.55
2022-08-31T04:44:46.267Z,77.55
2022-08-31T04:45:46.470Z,77.45
2022-08-31T04:46:46.255Z,77.45
2022-08-31T04:47:46.240Z,77.45
2022-08-31T04:48:46.418Z,77.35
2022-08-31T04:49:46.206Z,77.35
2022-08-31T04:50:46.198Z,77.35
2022-08-31T04:51:46.167Z,77.66
2022-08-31T04:52:57.346Z,77.66
2022-08-31T04:53:47.432Z,77.86
2022-08-31T04:54:46.129Z,77.75
2022-08-31T04:55:46.119Z,77.86
2022-08-31T04:56:46.109Z,77.95
2022-08-31T04:57:46.122Z,78.06
2022-08-31T04:58:46.090Z,77.95
2022-08-31T04:59:46.383Z,77.75
2022-08-31T05:00:46.069Z,77.79
2022-08-31T05:01:46.164Z,77.79
2022-08-31T05:02:51.341Z,77.99
2022-08-31T05:03:47.032Z,78.30
2022-08-31T05:04:46.034Z,78.09
2022-08-31T05:05:46.321Z,77.99
2022-08-31T05:06:46.313Z,77.99
2022-08-31T05:07:46.223Z,78.30
2022-08-31T05:08:45.984Z,78.09
2022-08-31T05:09:45.953Z,77.99
2022-08-31T05:10:45.958Z,78.09
2022-08-31T05:11:45.934Z,78.39
2022-08-31T05:12:45.958Z,78.30
2022-08-31T05:13:46.186Z,78.19
2022-08-31T05:14:46.107Z,78.50
2022-08-31T05:15:46.002Z,78.39
2022-08-31T05:16:45.903Z,78.30
2022-08-31T05:17:45.876Z,78.30
2022-08-31T05:18:46.155Z,78.50
2022-08-31T05:19:45.836Z,78.39
2022-08-31T05:20:45.849Z,78.30
2022-08-31T05:21:45.834Z,78.30
2022-08-31T05:22:45.823Z,78.30
2022-08-31T05:23:46.080Z,78.50
2022-08-31T05:24:45.813Z,78.59
2022-08-31T05:25:45.810Z,78.50
2022-08-31T05:26:45.779Z,78.59
2022-08-31T05:27:45.808Z,78.70
2022-08-31T05:28:45.743Z,78.50
2022-08-31T05:29:45.725Z,78.59
2022-08-31T05:30:46.029Z,78.50
2022-08-31T05:31:50.258Z,78.39
2022-08-31T05:32:46.704Z,78.59
2022-08-31T05:33:45.678Z,78.59
2022-08-31T05:34:45.672Z,78.70
2022-08-31T05:35:45.665Z,78.59
2022-08-31T05:36:45.677Z,78.50
2022-08-31T05:37:45.645Z,78.50
2022-08-31T05:38:45.636Z,78.30
2022-08-31T05:39:45.638Z,78.39
2022-08-31T05:40:45.667Z,78.59
2022-08-31T05:41:45.599Z,78.39
2022-08-31T05:42:45.581Z,78.39
2022-08-31T05:43:45.569Z,78.59
2022-08-31T05:44:45.816Z,78.50
2022-08-31T05:45:45.556Z,78.50
2022-08-31T05:46:54.656Z,78.39
2022-08-31T05:47:46.529Z,78.39
2022-08-31T05:48:49.136Z,78.39
2022-08-31T05:49:45.509Z,78.39
2022-08-31T05:50:45.797Z,78.50
2022-08-31T05:51:45.465Z,78.39
2022-08-31T05:52:45.456Z,78.59
2022-08-31T05:53:45.446Z,78.70
2022-08-31T05:54:45.449Z,78.59
2022-08-31T05:55:45.419Z,78.50
2022-08-31T05:56:45.677Z,78.70
2022-08-31T05:57:45.619Z,78.70
2022-08-31T05:58:46.182Z,78.80
2022-08-31T05:59:45.407Z,79.00
2022-08-31T06:00:45.397Z,79.00
2022-08-31T06:01:45.447Z,78.90
2022-08-31T06:02:45.358Z,78.80
2022-08-31T06:03:45.342Z,78.70
2022-08-31T06:04:45.389Z,78.59
2022-08-31T06:05:45.300Z,78.46
2022-08-31T06:06:45.307Z,78.36
2022-08-31T06:07:45.581Z,78.36
2022-08-31T06:08:45.292Z,78.26
2022-08-31T06:09:45.271Z,78.06
2022-08-31T06:10:45.575Z,78.26
2022-08-31T06:11:45.259Z,78.36
2022-08-31T06:12:45.249Z,78.36
2022-08-31T06:13:45.225Z,78.36
2022-08-31T06:14:47.930Z,78.36
2022-08-31T06:15:45.261Z,78.36
2022-08-31T06:16:45.174Z,78.26
2022-08-31T06:17:45.186Z,78.26
2022-08-31T06:18:45.153Z,78.46
2022-08-31T06:19:45.143Z,78.46
2022-08-31T06:20:45.125Z,78.26
2022-08-31T06:21:49.673Z,78.36
2022-08-31T06:22:46.226Z,78.26
2022-08-31T06:23:45.108Z,78.16
2022-08-31T06:24:45.077Z,78.16
2022-08-31T06:25:45.075Z,78.06
2022-08-31T06:26:45.057Z,77.95
2022-08-31T06:27:45.311Z,77.95
2022-08-31T06:28:45.049Z,77.82
2022-08-31T06:29:45.028Z,77.62
2022-08-31T06:30:54.885Z,77.51
2022-08-31T06:31:46.122Z,77.31
2022-08-31T06:32:44.988Z,77.62
2022-08-31T06:33:44.992Z,77.82
2022-08-31T06:34:44.974Z,77.51
2022-08-31T06:35:44.964Z,77.51
2022-08-31T06:36:45.164Z,77.31
2022-08-31T06:37:44.940Z,77.21
2022-08-31T06:38:44.934Z,77.21
2022-08-31T06:39:45.156Z,77.21
2022-08-31T06:40:45.231Z,77.21
2022-08-31T06:41:44.882Z,77.31
2022-08-31T06:42:45.070Z,77.51
2022-08-31T06:43:45.041Z,77.51
2022-08-31T06:44:44.857Z,77.31
2022-08-31T06:45:44.841Z,77.21
2022-08-31T06:46:47.526Z,76.97
2022-08-31T06:47:45.115Z,77.08
2022-08-31T06:48:44.805Z,76.97
2022-08-31T06:49:44.808Z,76.97
2022-08-31T06:50:44.796Z,76.87
2022-08-31T06:51:44.775Z,77.08
2022-08-31T06:52:44.755Z,76.97
2022-08-31T06:53:45.026Z,76.97
2022-08-31T06:54:44.726Z,77.08
2022-08-31T06:55:44.725Z,76.87
2022-08-31T06:56:44.706Z,76.87
2022-08-31T06:57:44.717Z,77.08
2022-08-31T06:58:45.007Z,76.97
2022-08-31T06:59:44.667Z,76.87
2022-08-31T07:00:44.679Z,76.87
2022-08-31T07:01:44.755Z,76.97
2022-08-31T07:02:44.918Z,76.87
2022-08-31T07:03:45.634Z,76.87
2022-08-31T07:04:44.616Z,76.77
2022-08-31T07:05:44.649Z,76.87
2022-08-31T07:06:44.602Z,76.77
2022-08-31T07:07:44.585Z,76.87
2022-08-31T07:08:44.882Z,76.87
2022-08-31T07:09:44.585Z,76.97
2022-08-31T07:10:44.541Z,76.97
2022-08-31T07:11:45.052Z,76.67
2022-08-31T07:12:44.534Z,76.67
2022-08-31T07:13:44.856Z,76.77
2022-08-31T07:14:54.614Z,76.77
2022-08-31T07:15:45.505Z,76.67
2022-08-31T07:16:44.532Z,76.67
2022-08-31T07:17:44.477Z,76.77
2022-08-31T07:18:44.471Z,76.67
2022-08-31T07:19:45.057Z,76.77
2022-08-31T07:20:44.436Z,76.77
2022-08-31T07:21:44.416Z,76.84
2022-08-31T07:22:44.414Z,76.74
2022-08-31T07:23:44.406Z,76.84
2022-08-31T07:24:44.687Z,76.84
2022-08-31T07:25:51.344Z,76.74
2022-08-31T07:26:44.373Z,76.64
2022-08-31T07:27:44.365Z,76.64
2022-08-31T07:28:44.326Z,76.64
2022-08-31T07:29:51.353Z,76.54
2022-08-31T07:30:44.392Z,76.43
2022-08-31T07:31:44.307Z,76.34
2022-08-31T07:32:44.565Z,76.34
2022-08-31T07:33:44.289Z,76.23
2022-08-31T07:34:44.321Z,76.34
2022-08-31T07:35:44.259Z,76.20
2022-08-31T07:36:44.227Z,76.10
2022-08-31T07:37:44.241Z,75.99
2022-08-31T07:38:44.487Z,75.90
2022-08-31T07:39:44.207Z,75.66
2022-08-31T07:40:44.238Z,75.46
2022-08-31T07:41:44.188Z,75.35
2022-08-31T07:42:44.482Z,75.15
2022-08-31T07:43:47.139Z,75.05
2022-08-31T07:44:53.286Z,74.85
2022-08-31T07:45:45.215Z,74.95
2022-08-31T07:46:44.134Z,74.75
2022-08-31T07:47:44.119Z,74.85
2022-08-31T07:48:44.089Z,74.85
2022-08-31T07:49:44.102Z,74.85
2022-08-31T07:50:44.084Z,74.75
2022-08-31T07:51:44.325Z,74.75
2022-08-31T07:52:44.054Z,74.75
2022-08-31T07:53:44.032Z,74.82
2022-08-31T07:54:44.304Z,74.82
2022-08-31T07:55:44.023Z,74.52
2022-08-31T07:56:44.024Z,74.52
2022-08-31T07:57:44.016Z,74.62
2022-08-31T07:58:43.975Z,74.72
2022-08-31T07:59:44.098Z,74.72
2022-08-31T08:00:44.238Z,74.72
2022-08-31T08:01:43.989Z,74.41
2022-08-31T08:02:43.985Z,74.32
2022-08-31T08:03:43.937Z,74.41
2022-08-31T08:04:43.909Z,74.21
2022-08-31T08:05:43.908Z,74.21
2022-08-31T08:06:44.125Z,74.32
2022-08-31T08:07:43.886Z,74.21
2022-08-31T08:08:48.151Z,74.41
2022-08-31T08:09:44.859Z,74.52
2022-08-31T08:10:43.826Z,74.32
2022-08-31T08:11:43.826Z,74.32
2022-08-31T08:12:44.078Z,74.28
2022-08-31T08:13:43.818Z,74.28
2022-08-31T08:14:43.791Z,74.38
2022-08-31T08:15:43.778Z,74.08
2022-08-31T08:16:43.817Z,73.68
2022-08-31T08:17:43.757Z,73.58
2022-08-31T08:18:43.939Z,73.58
2022-08-31T08:19:43.744Z,73.58
2022-08-31T08:20:44.030Z,73.68
2022-08-31T08:21:43.724Z,73.68
2022-08-31T08:22:55.103Z,73.98
2022-08-31T08:23:44.683Z,73.94
2022-08-31T08:24:43.670Z,73.88
2022-08-31T08:25:43.759Z,73.78
2022-08-31T08:26:43.894Z,73.68
2022-08-31T08:27:43.633Z,73.47
2022-08-31T08:28:43.623Z,73.68
2022-08-31T08:29:43.627Z,73.54
2022-08-31T08:30:43.635Z,73.64
2022-08-31T08:31:43.738Z,73.78
2022-08-31T08:32:43.624Z,73.88
2022-08-31T08:33:43.607Z,73.78
2022-08-31T08:34:43.555Z,73.88
2022-08-31T08:35:43.545Z,73.84
2022-08-31T08:36:43.553Z,73.74
2022-08-31T08:37:57.682Z,73.74
2022-08-31T08:38:44.560Z,73.64
2022-08-31T08:39:43.714Z,73.74
2022-08-31T08:40:43.577Z,73.74
2022-08-31T08:41:43.787Z,73.64
2022-08-31T08:42:43.458Z,73.64
2022-08-31T08:43:43.829Z,73.74
2022-08-31T08:44:43.458Z,73.74
2022-08-31T08:45:43.519Z,73.64
2022-08-31T08:46:43.485Z,73.24
2022-08-31T08:47:43.657Z,73.14
2022-08-31T08:48:43.416Z,73.14
2022-08-31T08:49:43.404Z,73.14
2022-08-31T08:50:43.370Z,73.24
2022-08-31T08:51:43.373Z,73.34
2022-08-31T08:52:43.659Z,73.54
2022-08-31T08:53:43.333Z,73.34
2022-08-31T08:54:43.324Z,73.54
2022-08-31T08:55:43.312Z,73.44
2022-08-31T08:56:43.292Z,73.44
2022-08-31T08:57:43.292Z,73.30
2022-08-31T08:58:43.604Z,73.61
2022-08-31T08:59:43.299Z,72.87
2022-08-31T09:00:43.319Z,72.56
2022-08-31T09:01:43.297Z,72.67
2022-08-31T09:02:43.538Z,72.27
2022-08-31T09:03:43.215Z,71.93
2022-08-31T09:04:43.205Z,71.73
2022-08-31T09:05:43.224Z,71.43
2022-08-31T09:06:46.449Z,71.23
2022-08-31T09:07:43.497Z,71.00
2022-08-31T09:08:43.365Z,70.89
2022-08-31T09:09:43.170Z,70.59
2022-08-31T09:10:43.208Z,70.69
2022-08-31T09:11:43.139Z,70.79
2022-08-31T09:12:43.107Z,71.20
2022-08-31T09:13:43.098Z,70.89
2022-08-31T09:14:43.372Z,70.66
2022-08-31T09:15:43.181Z,70.66
2022-08-31T09:16:43.084Z,70.76
2022-08-31T09:17:43.057Z,70.86
2022-08-31T09:18:43.042Z,71.36
2022-08-31T09:19:43.052Z,70.86
2022-08-31T09:20:43.030Z,70.56
2022-08-31T09:21:43.023Z,70.32
2022-08-31T09:22:42.993Z,69.93
2022-08-31T09:23:43.008Z,69.93
2022-08-31T09:24:43.285Z,70.03
2022-08-31T09:25:43.283Z,69.73
2022-08-31T09:26:42.979Z,69.62
2022-08-31T09:27:42.933Z,69.53
2022-08-31T09:28:42.924Z,69.73
2022-08-31T09:29:43.187Z,69.32
2022-08-31T09:30:42.952Z,70.23
2022-08-31T09:31:42.928Z,69.93
2022-08-31T09:32:42.900Z,69.29
2022-08-31T09:33:42.867Z,69.69
2022-08-31T09:34:42.869Z,69.29
2022-08-31T09:35:43.084Z,69.39
2022-08-31T09:36:42.827Z,69.09
2022-08-31T09:37:43.138Z,68.99
2022-08-31T09:38:42.820Z,68.59
2022-08-31T09:39:42.810Z,68.69
2022-08-31T09:40:42.941Z,68.79
2022-08-31T09:41:42.781Z,68.89
2022-08-31T09:42:42.769Z,68.79
2022-08-31T09:43:42.961Z,68.49
2022-08-31T09:44:42.819Z,68.86
2022-08-31T09:45:42.771Z,68.46
2022-08-31T09:46:42.978Z,68.55
2022-08-31T09:47:42.701Z,68.55
2022-08-31T09:48:42.690Z,68.55
2022-08-31T09:49:42.672Z,68.36
2022-08-31T09:50:42.676Z,68.43
2022-08-31T09:51:42.971Z,68.23
2022-08-31T09:52:42.647Z,68.02
2022-08-31T09:53:42.644Z,67.89
2022-08-31T09:54:46.896Z,67.59
2022-08-31T09:55:42.617Z,67.59
2022-08-31T09:56:42.916Z,67.59
2022-08-31T09:57:42.616Z,67.19
2022-08-31T09:58:42.587Z,66.99
2022-08-31T09:59:42.579Z,66.99
2022-08-31T10:00:42.588Z,67.09
2022-08-31T10:01:42.630Z,66.89
2022-08-31T10:02:42.524Z,67.09
2022-08-31T10:03:42.528Z,66.89
2022-08-31T10:04:42.581Z,66.79
2022-08-31T10:05:42.486Z,67.06
2022-08-31T10:06:42.469Z,67.06
2022-08-31T10:07:42.678Z,67.56
2022-08-31T10:08:42.452Z,67.36
2022-08-31T10:09:42.452Z,66.33
2022-08-31T10:10:42.420Z,66.03
2022-08-31T10:11:42.419Z,65.93
2022-08-31T10:12:42.709Z,65.33
2022-08-31T10:13:42.397Z,65.33
2022-08-31T10:14:42.381Z,65.63
2022-08-31T10:15:42.427Z,65.53
2022-08-31T10:16:42.372Z,65.73
2022-08-31T10:17:42.591Z,65.50
2022-08-31T10:18:42.331Z,65.60
2022-08-31T10:19:42.358Z,65.00
2022-08-31T10:20:42.328Z,65.10
2022-08-31T10:21:42.303Z,64.67
2022-08-31T10:22:42.307Z,64.77
2022-08-31T10:23:42.625Z,64.77
2022-08-31T10:24:42.284Z,64.64
2022-08-31T10:25:42.254Z,64.04
2022-08-31T10:26:42.258Z,64.04
2022-08-31T10:27:42.248Z,63.74
2022-08-31T10:28:42.238Z,63.64
2022-08-31T10:29:42.431Z,62.94
2022-08-31T10:30:42.252Z,63.24
2022-08-31T10:31:42.200Z,63.34
2022-08-31T10:32:42.190Z,63.54
2022-08-31T10:33:42.182Z,63.44
2022-08-31T10:34:42.158Z,63.41
2022-08-31T10:35:42.445Z,62.94
2022-08-31T10:36:42.142Z,63.24
2022-08-31T10:37:42.131Z,63.54
2022-08-31T10:38:42.123Z,63.64
2022-08-31T10:39:42.110Z,63.74
2022-08-31T10:40:42.180Z,63.84
2022-08-31T10:41:42.083Z,63.47
2022-08-31T10:42:48.748Z,63.47
2022-08-31T10:43:42.041Z,63.67
2022-08-31T10:44:42.055Z,63.87
2022-08-31T10:45:43.044Z,63.87
2022-08-31T10:46:42.094Z,63.57
2022-08-31T10:47:41.996Z,63.47
2022-08-31T10:48:42.007Z,63.77
2022-08-31T10:49:41.974Z,63.70
2022-08-31T10:50:41.966Z,63.80
2022-08-31T10:51:41.977Z,63.80
2022-08-31T10:52:41.944Z,64.00
2022-08-31T10:53:41.925Z,64.30
2022-08-31T10:54:41.938Z,64.30
2022-08-31T10:55:41.919Z,64.10
2022-08-31T10:56:41.909Z,64.30
2022-08-31T10:57:42.107Z,64.37
2022-08-31T10:58:41.890Z,64.37
2022-08-31T10:59:41.873Z,64.07
2022-08-31T11:00:41.869Z,63.67
2022-08-31T11:01:42.009Z,63.87
2022-08-31T11:02:41.828Z,64.07
2022-08-31T11:03:42.020Z,64.27
2022-08-31T11:04:41.895Z,64.37
2022-08-31T11:05:41.789Z,64.07
2022-08-31T11:06:41.805Z,64.17
2022-08-31T11:07:41.811Z,64.07
2022-08-31T11:08:41.782Z,63.97
2022-08-31T11:09:42.084Z,64.17
2022-08-31T11:10:41.754Z,63.97
2022-08-31T11:11:43.893Z,64.57
2022-08-31T11:12:41.726Z,64.27
2022-08-31T11:13:42.837Z,63.94
2022-08-31T11:14:41.693Z,63.94
2022-08-31T11:15:42.089Z,63.94
2022-08-31T11:16:41.665Z,63.84
2022-08-31T11:17:41.668Z,63.54
2022-08-31T11:18:41.900Z,63.44
2022-08-31T11:19:41.636Z,63.44
2022-08-31T11:20:41.637Z,63.91
2022-08-31T11:21:41.608Z,63.91
2022-08-31T11:22:41.618Z,63.41
2022-08-31T11:23:45.267Z,63.11
2022-08-31T11:24:41.780Z,63.08
2022-08-31T11:25:41.572Z,62.78
2022-08-31T11:26:41.570Z,62.38
2022-08-31T11:27:41.557Z,62.68
2022-08-31T11:28:41.529Z,62.59
2022-08-31T11:29:41.554Z,62.88
2022-08-31T11:30:42.218Z,62.68
2022-08-31T11:31:41.562Z,62.26
2022-08-31T11:32:41.493Z,62.26
2022-08-31T11:33:55.224Z,62.45
2022-08-31T11:34:42.481Z,62.45
2022-08-31T11:35:42.209Z,62.26
2022-08-31T11:36:41.432Z,61.76
2022-08-31T11:37:41.424Z,61.96
2022-08-31T11:38:41.431Z,62.29
2022-08-31T11:39:41.404Z,62.26
2022-08-31T11:40:44.639Z,62.26
2022-08-31T11:41:41.392Z,62.05
2022-08-31T11:42:41.364Z,62.26
2022-08-31T11:43:41.352Z,62.26
2022-08-31T11:44:41.348Z,61.85
2022-08-31T11:45:41.446Z,62.26
2022-08-31T11:46:41.358Z,61.96
2022-08-31T11:47:41.326Z,61.96
2022-08-31T11:48:41.326Z,61.76
2022-08-31T11:49:41.276Z,62.05
2022-08-31T11:50:41.280Z,61.96
2022-08-31T11:51:41.748Z,62.26
2022-08-31T11:52:41.259Z,61.66
2022-08-31T11:53:41.266Z,61.53
2022-08-31T11:54:41.219Z,61.13
2022-08-31T11:55:41.230Z,61.23
2022-08-31T11:56:41.212Z,61.03
2022-08-31T11:57:41.209Z,60.83
2022-08-31T11:58:41.193Z,60.63
2022-08-31T11:59:41.175Z,60.73
2022-08-31T12:00:41.152Z,60.80
2022-08-31T12:01:41.140Z,60.70
2022-08-31T12:02:41.228Z,60.50
2022-08-31T12:03:41.312Z,60.47
2022-08-31T12:04:41.117Z,59.98
2022-08-31T12:05:41.165Z,60.08
2022-08-31T12:06:41.093Z,59.98
2022-08-31T12:07:41.112Z,59.98
2022-08-31T12:08:41.080Z,59.68
2022-08-31T12:09:41.045Z,59.15
2022-08-31T12:10:41.128Z,59.25
2022-08-31T12:11:41.028Z,59.05
2022-08-31T12:12:41.026Z,58.95
2022-08-31T12:13:41.323Z,58.83
2022-08-31T12:14:41.008Z,58.92
2022-08-31T12:15:41.027Z,58.62
2022-08-31T12:16:40.979Z,58.23
2022-08-31T12:17:40.948Z,58.43
2022-08-31T12:18:40.947Z,58.53
2022-08-31T12:19:41.199Z,58.53
2022-08-31T12:20:40.935Z,58.53
2022-08-31T12:21:40.899Z,58.43
2022-08-31T12:22:40.891Z,58.62
2022-08-31T12:23:40.880Z,58.62
2022-08-31T12:24:40.882Z,58.62
2022-08-31T12:25:41.881Z,57.93
2022-08-31T12:26:45.122Z,58.03
2022-08-31T12:27:40.846Z,58.53
2022-08-31T12:28:40.908Z,57.81
2022-08-31T12:29:40.844Z,57.51
2022-08-31T12:30:40.840Z,57.51
2022-08-31T12:31:40.877Z,57.28
2022-08-31T12:32:40.795Z,57.18
2022-08-31T12:33:40.764Z,56.98
2022-08-31T12:34:40.778Z,56.49
2022-08-31T12:35:40.953Z,56.29
2022-08-31T12:36:40.764Z,56.38
2022-08-31T12:37:40.730Z,56.68
2022-08-31T12:38:40.751Z,56.78
2022-08-31T12:39:40.697Z,56.51
2022-08-31T12:40:40.738Z,57.01
2022-08-31T12:41:40.691Z,57.41
2022-08-31T12:42:40.673Z,57.41
2022-08-31T12:43:40.649Z,56.91
2022-08-31T12:44:40.639Z,57.01
2022-08-31T12:45:40.632Z,57.11
2022-08-31T12:46:40.724Z,57.21
2022-08-31T12:47:40.614Z,56.81
2022-08-31T12:48:40.614Z,56.61
2022-08-31T12:49:40.602Z,56.02
2022-08-31T12:50:40.592Z,55.89
2022-08-31T12:51:40.612Z,55.89
2022-08-31T12:52:40.563Z,55.91